Time;durP1;ratioP1;P1;durP2;ratioP2;P2;SDS_P1;SDS_P2;PMS_P1;PMS_P2;Temp;Humidity;BMP_temperature;BMP_pressure;BME280_temperature;BME280_humidity;BME280_pressure;Samples;Min_cycle;Max_cycle;Signal;HPM_P1;HPM_P2
2022/10/04 00:01:57;;;;;;;9.70;4.38;;;12.00;99.90;;;;;;5034869;28;20087;-71
2022/10/04 00:04:31;;;;;;;8.50;4.65;;;12.10;99.90;;;;;;5068540;28;20045;-71
2022/10/04 00:07:22;;;;;;;9.07;4.60;;;12.10;99.90;;;;;;5049807;28;20045;-70
2022/10/04 00:09:56;;;;;;;10.52;5.03;;;12.10;99.90;;;;;;5051671;28;20076;-70
2022/10/04 00:12:37;;;;;;;10.95;4.88;;;12.20;99.90;;;;;;5032877;28;20033;-71
2022/10/04 00:15:16;;;;;;;9.27;4.57;;;12.20;99.90;;;;;;5082266;28;20033;-71
2022/10/04 00:17:41;;;;;;;11.20;4.95;;;12.10;99.90;;;;;;5048544;28;20482;-71
2022/10/04 00:20:55;;;;;;;10.55;4.80;;;12.20;99.90;;;;;;5067024;28;20040;-71
2022/10/04 00:23:23;;;;;;;12.13;4.80;;;12.20;99.90;;;;;;5051570;28;20048;-71
2022/10/04 00:26:04;;;;;;;10.02;5.30;;;12.20;99.90;;;;;;5068413;28;20045;-70
2022/10/04 00:28:42;;;;;;;10.70;5.38;;;12.10;99.90;;;;;;5051861;28;20045;-70
2022/10/04 00:31:57;;;;;;;9.68;5.40;;;12.10;99.90;;;;;;5051432;28;20060;-70
2022/10/04 00:34:25;;;;;;;12.10;5.35;;;12.20;99.90;;;;;;5047497;28;20041;-70
2022/10/04 00:36:55;;;;;;;11.05;5.47;;;12.20;99.90;;;;;;5050561;28;20036;-71
2022/10/04 00:39:31;;;;;;;12.00;5.70;;;12.20;99.90;;;;;;5036658;28;20036;-70
2022/10/04 00:42:01;;;;;;;10.38;5.05;;;12.20;99.90;;;;;;5053635;28;20134;-70
2022/10/04 00:44:50;;;;;;;11.85;6.30;;;12.20;99.90;;;;;;5072216;28;20045;-70
2022/10/04 00:47:30;;;;;;;14.15;5.68;;;12.20;99.90;;;;;;5054468;28;20040;-71
2022/10/04 00:50:04;;;;;;;14.43;6.93;;;12.20;99.90;;;;;;5055134;28;20053;-71
2022/10/04 00:52:32;;;;;;;14.27;6.47;;;12.30;99.90;;;;;;5054753;28;20437;-71
2022/10/04 00:55:05;;;;;;;12.57;6.50;;;12.30;99.90;;;;;;5088855;28;20051;-71
2022/10/04 00:57:39;;;;;;;13.88;6.20;;;12.20;99.90;;;;;;5037397;28;20064;-71
2022/10/04 01:00:11;;;;;;;13.50;6.65;;;12.20;99.90;;;;;;5055300;28;20464;-71
2022/10/04 01:02:49;;;;;;;11.63;6.38;;;12.20;99.90;;;;;;5072022;28;20048;-71
2022/10/04 01:05:21;;;;;;;12.13;6.82;;;12.20;99.90;;;;;;5071718;28;20047;-70
2022/10/04 01:07:57;;;;;;;14.50;7.13;;;12.10;99.90;;;;;;5068672;28;20047;-71
2022/10/04 01:10:51;;;;;;;11.88;6.45;;;12.10;99.90;;;;;;5071531;28;20056;-71
2022/10/04 01:13:19;;;;;;;12.35;6.15;;;12.10;99.90;;;;;;5038255;28;20498;-71
2022/10/04 01:16:00;;;;;;;13.32;7.07;;;12.10;99.90;;;;;;5055096;28;20037;-71
2022/10/04 01:18:28;;;;;;;12.60;6.78;;;12.10;99.90;;;;;;5070508;28;20051;-70
2022/10/04 01:20:53;;;;;;;12.30;6.45;;;12.10;99.90;;;;;;5054627;28;20041;-71
2022/10/04 01:23:40;;;;;;;13.27;6.43;;;12.10;99.90;;;;;;5053679;28;20128;-70
2022/10/04 01:26:29;;;;;;;15.15;7.15;;;12.10;99.90;;;;;;5054985;28;20053;-70
2022/10/04 01:29:05;;;;;;;14.85;7.30;;;12.10;99.90;;;;;;5053416;28;20044;-70
2022/10/04 01:31:34;;;;;;;12.40;7.43;;;12.00;99.90;;;;;;5071152;28;20041;-70
2022/10/04 01:34:01;;;;;;;13.73;6.97;;;12.10;99.90;;;;;;5070671;28;20437;-71
2022/10/04 01:36:27;;;;;;;11.68;6.70;;;12.00;99.90;;;;;;5085894;28;20037;-71
2022/10/04 01:38:54;;;;;;;9.63;5.85;;;12.00;99.90;;;;;;5036338;28;20502;-71
2022/10/04 01:41:26;;;;;;;16.52;7.70;;;12.10;99.90;;;;;;5037621;28;20049;-70
2022/10/04 01:43:54;;;;;;;;;;;12.00;99.90;;;;;;5037742;28;20445;-71
2022/10/04 01:46:30;;;;;;;13.65;6.68;;;12.00;99.90;;;;;;5053179;28;20369;-72
2022/10/04 01:49:00;;;;;;;12.55;6.60;;;12.00;99.90;;;;;;5034276;28;20098;-71
2022/10/04 01:51:30;;;;;;;14.57;7.30;;;12.00;99.90;;;;;;5068272;28;20048;-71
2022/10/04 01:54:02;;;;;;;11.93;6.70;;;12.00;99.90;;;;;;5052832;28;20049;-71
2022/10/04 01:56:55;;;;;;;11.15;6.55;;;12.00;99.90;;;;;;5050711;28;20390;-71
2022/10/04 01:59:33;;;;;;;11.65;6.50;;;12.00;99.90;;;;;;5031625;28;20387;-71
2022/10/04 02:02:04;;;;;;;13.65;7.53;;;12.00;99.90;;;;;;5036065;28;20547;-71
2022/10/04 02:04:35;;;;;;;13.38;7.57;;;12.00;99.90;;;;;;5052423;28;20041;-71
2022/10/04 02:07:03;;;;;;;10.48;6.40;;;12.00;99.90;;;;;;5036038;28;20487;-70
2022/10/04 02:09:33;;;;;;;12.70;7.07;;;12.00;99.90;;;;;;5052659;28;20053;-71
2022/10/04 02:11:59;;;;;;;13.82;7.25;;;12.10;99.90;;;;;;5052668;28;20045;-71
2022/10/04 02:14:32;;;;;;;13.68;7.18;;;12.00;99.90;;;;;;5052611;28;20083;-71
2022/10/04 02:17:00;;;;;;;11.13;6.78;;;12.00;99.90;;;;;;5033804;28;20394;-71
2022/10/04 02:19:34;;;;;;;14.63;7.15;;;12.10;99.90;;;;;;5063817;28;20052;-71
2022/10/04 02:22:02;;;;;;;15.63;7.80;;;12.20;99.90;;;;;;5034896;28;20041;-71
2022/10/04 02:24:31;;;;;;;15.40;7.47;;;12.10;99.90;;;;;;5035652;28;20402;-70
2022/10/04 02:26:57;;;;;;;14.75;7.25;;;12.00;99.90;;;;;;5051272;28;20509;-71
2022/10/04 02:29:22;;;;;;;12.70;7.18;;;12.10;99.90;;;;;;5052404;28;20037;-70
2022/10/04 02:34:35;;;;;;;12.38;7.20;;;12.00;99.90;;;;;;5085368;28;20119;-70
2022/10/04 02:37:04;;;;;;;12.15;7.55;;;12.00;99.90;;;;;;5050407;28;20029;-70
2022/10/04 02:39:35;;;;;;;13.38;7.15;;;12.00;99.90;;;;;;5052364;28;20049;-71
2022/10/04 02:42:27;;;;;;;12.32;7.57;;;12.00;99.90;;;;;;5034252;28;20094;-71
2022/10/04 02:44:57;;;;;;;12.18;6.82;;;11.90;99.90;;;;;;5067049;28;20398;-71
2022/10/04 02:47:28;;;;;;;11.57;6.75;;;11.90;99.90;;;;;;5051550;28;20037;-71
2022/10/04 02:50:07;;;;;;;12.50;7.68;;;11.90;99.90;;;;;;5035140;28;20073;-71
2022/10/04 02:52:41;;;;;;;10.23;6.53;;;11.90;99.90;;;;;;5040623;28;20041;-71
2022/10/04 02:55:22;;;;;;;12.13;6.50;;;11.80;99.90;;;;;;5046015;28;20033;-71
2022/10/04 02:57:51;;;;;;;11.13;7.18;;;11.80;99.90;;;;;;5035499;28;20402;-71
2022/10/04 03:00:26;;;;;;;13.55;7.30;;;11.80;99.90;;;;;;5054261;28;20511;-71
2022/10/04 03:03:25;;;;;;;13.10;7.50;;;11.70;99.90;;;;;;5051988;28;20075;-71
2022/10/04 03:06:16;;;;;;;12.68;7.05;;;11.70;99.90;;;;;;5026799;28;20498;-71
2022/10/04 03:08:42;;;;;;;13.63;7.43;;;11.70;99.90;;;;;;5046828;28;20044;-71
2022/10/04 03:11:10;;;;;;;11.18;6.72;;;11.80;99.90;;;;;;5066059;28;20029;-71
2022/10/04 03:13:40;;;;;;;11.57;7.30;;;11.80;99.90;;;;;;5051029;28;20528;-71
2022/10/04 03:16:06;;;;;;;11.35;6.97;;;11.70;99.90;;;;;;5083317;28;20510;-71
2022/10/04 03:18:34;;;;;;;12.13;7.03;;;11.70;99.90;;;;;;5041390;28;20569;-70
2022/10/04 03:21:03;;;;;;;12.50;7.72;;;11.70;99.90;;;;;;5051444;28;20033;-71
2022/10/04 03:23:30;;;;;;;14.02;6.65;;;11.70;99.90;;;;;;5034787;28;20037;-71
2022/10/04 03:26:21;;;;;;;14.30;7.32;;;11.80;99.90;;;;;;5052420;28;20052;-71
2022/10/04 03:28:47;;;;;;;12.55;7.80;;;11.70;99.90;;;;;;5040001;28;20102;-71
2022/10/04 03:31:14;;;;;;;17.17;8.23;;;11.70;99.90;;;;;;5034360;28;20398;-71
2022/10/04 03:33:41;;;;;;;14.27;7.35;;;11.70;99.90;;;;;;5067002;28;20044;-71
2022/10/04 03:36:13;;;;;;;13.52;8.13;;;11.70;99.90;;;;;;5033288;28;20037;-71
2022/10/04 03:38:39;;;;;;;14.15;8.15;;;11.80;99.90;;;;;;5019496;28;20049;-71
2022/10/04 03:41:06;;;;;;;12.93;7.38;;;11.80;99.90;;;;;;5083568;28;20124;-70
2022/10/04 03:43:36;;;;;;;14.40;7.95;;;11.70;99.90;;;;;;5051466;28;20117;-71
2022/10/04 03:46:04;;;;;;;14.00;7.72;;;11.70;99.90;;;;;;5051421;28;20044;-71
2022/10/04 03:48:45;;;;;;;12.80;7.32;;;11.70;99.90;;;;;;5062724;28;20367;-71
2022/10/04 03:51:20;;;;;;;11.15;7.50;;;11.70;99.90;;;;;;5034297;28;20044;-72
2022/10/04 03:53:48;;;;;;;13.15;7.22;;;11.60;99.90;;;;;;5064990;28;20036;-71
2022/10/04 03:56:30;;;;;;;11.98;6.70;;;11.60;99.90;;;;;;5050795;28;20037;-71
2022/10/04 03:58:56;;;;;;;16.13;7.33;;;11.60;99.90;;;;;;5049431;28;20080;-71
2022/10/04 04:01:33;;;;;;;12.32;6.95;;;11.60;99.90;;;;;;5033406;28;20037;-71
2022/10/04 04:04:12;;;;;;;11.82;7.00;;;11.70;99.90;;;;;;5027777;28;20098;-71
2022/10/04 04:06:58;;;;;;;13.00;6.75;;;11.60;99.90;;;;;;5032829;28;20087;-71
2022/10/04 04:09:42;;;;;;;14.48;7.22;;;11.60;99.90;;;;;;5067553;28;20041;-70
2022/10/04 04:12:20;;;;;;;11.68;7.30;;;11.60;99.90;;;;;;5047998;28;20420;-71
2022/10/04 04:14:50;;;;;;;12.73;7.30;;;11.60;99.90;;;;;;5048581;28;20498;-71
2022/10/04 04:17:26;;;;;;;11.75;7.00;;;11.60;99.90;;;;;;5048824;28;20380;-71
2022/10/04 04:19:58;;;;;;;11.13;7.10;;;11.50;99.90;;;;;;5023627;28;20049;-71
2022/10/04 04:22:30;;;;;;;11.15;6.82;;;11.60;99.90;;;;;;5042304;28;20045;-71
2022/10/04 04:24:59;;;;;;;13.63;6.80;;;11.50;99.90;;;;;;5049782;28;20418;-71
2022/10/04 04:27:25;;;;;;;13.20;6.88;;;11.50;99.90;;;;;;5050574;28;20041;-71
2022/10/04 04:29:52;;;;;;;13.05;7.03;;;11.50;99.90;;;;;;5066481;28;20454;-71
2022/10/04 04:32:24;;;;;;;15.70;7.40;;;11.50;99.90;;;;;;5050179;28;20037;-71
2022/10/04 04:34:55;;;;;;;11.93;7.10;;;11.50;99.90;;;;;;5053883;28;20039;-71
2022/10/04 04:37:21;;;;;;;12.90;7.20;;;11.40;99.90;;;;;;5043147;28;20037;-71
2022/10/04 04:39:53;;;;;;;14.15;7.40;;;11.50;99.90;;;;;;5055247;28;20304;-70
2022/10/04 04:42:33;;;;;;;13.73;6.97;;;11.40;99.90;;;;;;5046126;28;20049;-71
2022/10/04 04:45:21;;;;;;;13.68;7.78;;;11.50;99.90;;;;;;5033100;28;20045;-71
2022/10/04 04:47:50;;;;;;;14.45;8.10;;;11.40;99.90;;;;;;5063732;28;20120;-71
2022/10/04 04:50:25;;;;;;;13.73;7.75;;;11.40;99.90;;;;;;5049512;28;20529;-71
2022/10/04 04:52:53;;;;;;;12.27;7.78;;;11.40;99.90;;;;;;5050510;28;20048;-71
2022/10/04 04:55:41;;;;;;;13.65;7.80;;;11.40;99.90;;;;;;5057625;28;20119;-71
2022/10/04 04:58:10;;;;;;;15.82;8.40;;;11.40;99.90;;;;;;5038844;28;20383;-71
2022/10/04 05:00:37;;;;;;;13.75;7.95;;;11.30;99.90;;;;;;5049344;28;20507;-71
2022/10/04 05:03:07;;;;;;;13.45;8.57;;;11.40;99.90;;;;;;5046536;28;20041;-71
2022/10/04 05:05:34;;;;;;;14.32;8.70;;;11.40;99.90;;;;;;5033398;28;20087;-71
2022/10/04 05:08:12;;;;;;;17.10;9.13;;;11.40;99.90;;;;;;5053899;28;20048;-71
2022/10/04 05:10:45;;;;;;;16.52;8.20;;;11.40;99.90;;;;;;5058732;28;20041;-71
2022/10/04 05:13:12;;;;;;;16.17;9.10;;;11.60;99.90;;;;;;5067434;28;20379;-71
2022/10/04 05:15:40;;;;;;;15.13;8.35;;;11.50;99.90;;;;;;5048421;28;20086;-71
2022/10/04 05:18:30;;;;;;;15.23;9.07;;;11.50;99.90;;;;;;5033574;28;20037;-71
2022/10/04 05:21:03;;;;;;;13.85;9.20;;;11.50;99.90;;;;;;5045900;28;20567;-71
2022/10/04 05:23:29;;;;;;;17.02;9.18;;;11.40;99.90;;;;;;5049388;28;20398;-71
2022/10/04 05:25:54;;;;;;;14.20;9.15;;;11.40;99.90;;;;;;5053320;28;20099;-71
2022/10/04 05:28:20;;;;;;;15.57;9.45;;;11.40;99.90;;;;;;5053356;28;20052;-71
2022/10/04 05:31:13;;;;;;;12.80;8.75;;;11.40;99.90;;;;;;5053803;28;20562;-71
2022/10/04 05:33:56;;;;;;;13.02;9.40;;;11.40;99.90;;;;;;5052020;28;20068;-71
2022/10/04 05:36:45;;;;;;;12.57;9.02;;;11.30;99.90;;;;;;5036497;28;20033;-71
2022/10/04 05:39:20;;;;;;;13.73;9.05;;;11.30;99.90;;;;;;5036517;28;20078;-71
2022/10/04 05:41:58;;;;;;;14.10;9.00;;;11.40;99.90;;;;;;5052524;28;20041;-71
2022/10/04 05:44:27;;;;;;;15.98;9.38;;;11.40;99.90;;;;;;5052415;28;20152;-71
2022/10/04 05:47:06;;;;;;;14.25;10.15;;;11.30;99.90;;;;;;5049933;28;20038;-71
2022/10/04 05:49:42;;;;;;;17.08;10.10;;;11.30;99.90;;;;;;5052689;28;20065;-70
2022/10/04 05:52:37;;;;;;;16.55;9.98;;;11.30;99.90;;;;;;5070554;28;20033;-71
2022/10/04 05:55:12;;;;;;;19.23;11.82;;;11.20;99.90;;;;;;5067859;28;20045;-71
2022/10/04 05:57:49;;;;;;;14.80;9.73;;;11.20;99.90;;;;;;5068934;28;20418;-71
2022/10/04 06:00:15;;;;;;;13.55;9.85;;;11.20;99.90;;;;;;5035350;28;20665;-71
2022/10/04 06:02:46;;;;;;;15.10;9.23;;;11.20;99.90;;;;;;5082894;28;20040;-71
2022/10/04 06:05:26;;;;;;;17.42;9.38;;;11.20;99.90;;;;;;5052364;28;20047;-71
2022/10/04 06:08:13;;;;;;;15.13;10.05;;;11.20;99.90;;;;;;5065594;28;20032;-71
2022/10/04 06:11:02;;;;;;;15.38;9.57;;;11.20;99.90;;;;;;5030657;28;20033;-71
2022/10/04 06:14:00;;;;;;;18.35;10.43;;;11.20;99.90;;;;;;5068618;28;20163;-71
2022/10/04 06:16:58;;;;;;;14.38;9.57;;;11.20;99.90;;;;;;5031509;28;20135;-71
2022/10/04 06:19:27;;;;;;;15.82;9.98;;;11.20;99.90;;;;;;5063298;28;20041;-71
2022/10/04 06:22:16;;;;;;;16.08;10.35;;;11.20;99.90;;;;;;5068479;28;20045;-71
2022/10/04 06:24:47;;;;;;;14.88;10.02;;;11.30;99.90;;;;;;5050983;28;20086;-71
2022/10/04 06:27:28;;;;;;;17.83;11.15;;;11.20;99.90;;;;;;5051959;28;20041;-71
2022/10/04 06:30:04;;;;;;;16.42;9.63;;;11.30;99.90;;;;;;5052721;28;20041;-71
2022/10/04 06:33:01;;;;;;;15.98;10.40;;;11.30;99.90;;;;;;5035267;28;20037;-71
2022/10/04 06:35:48;;;;;;;15.35;10.50;;;11.30;99.90;;;;;;5065053;28;20033;-71
2022/10/04 06:38:43;;;;;;;15.02;9.88;;;11.30;99.90;;;;;;5084444;28;20079;-71
2022/10/04 06:41:48;;;;;;;14.18;10.25;;;11.30;99.90;;;;;;5020640;28;20522;-71
2022/10/04 06:44:59;;;;;;;14.60;10.50;;;11.30;99.90;;;;;;5083935;28;20037;-71
2022/10/04 06:47:59;;;;;;;16.60;10.32;;;11.40;99.90;;;;;;5063829;28;20041;-71
2022/10/04 06:50:53;;;;;;;18.50;11.15;;;11.40;99.90;;;;;;5079026;28;20409;-71
2022/10/04 06:53:57;;;;;;;15.93;11.30;;;11.50;99.90;;;;;;5068374;28;20395;-71
2022/10/04 06:56:39;;;;;;;15.15;11.32;;;11.50;99.90;;;;;;5055292;28;20037;-71
2022/10/04 06:59:17;;;;;;;15.38;10.93;;;11.60;99.90;;;;;;5033985;28;20283;-71
2022/10/04 07:01:53;;;;;;;15.10;11.75;;;11.60;99.90;;;;;;5052509;28;20405;-71
2022/10/04 07:04:38;;;;;;;19.25;11.50;;;11.60;99.90;;;;;;5050931;28;20052;-71
2022/10/04 07:07:36;;;;;;;15.18;11.40;;;11.60;99.90;;;;;;5040584;28;20406;-71
2022/10/04 07:10:29;;;;;;;15.27;10.50;;;11.70;99.90;;;;;;5063936;28;20037;-71
2022/10/04 07:13:07;;;;;;;17.48;10.98;;;11.70;99.90;;;;;;5085462;28;20544;-71
2022/10/04 07:15:51;;;;;;;15.85;11.40;;;11.80;99.90;;;;;;5049010;28;20398;-71
2022/10/04 07:18:31;;;;;;;18.25;11.70;;;11.80;99.90;;;;;;5038558;28;20040;-71
2022/10/04 07:21:07;;;;;;;18.50;12.15;;;11.90;99.90;;;;;;5061329;28;20131;-71
2022/10/04 07:23:44;;;;;;;18.17;11.75;;;11.90;99.90;;;;;;5067446;28;20037;-71
2022/10/04 07:26:27;;;;;;;19.23;12.23;;;11.90;99.90;;;;;;5082677;28;20033;-71
2022/10/04 07:31:46;;;;;;;18.65;12.02;;;12.00;99.90;;;;;;5084680;28;20115;-71
2022/10/04 07:34:22;;;;;;;17.75;11.55;;;12.10;99.90;;;;;;5035122;28;20386;-71
2022/10/04 07:36:58;;;;;;;19.48;12.60;;;12.20;99.90;;;;;;5065659;28;20044;-71
2022/10/04 07:39:29;;;;;;;18.30;12.77;;;12.20;99.90;;;;;;5083457;28;20037;-71
2022/10/04 07:42:20;;;;;;;15.02;11.07;;;12.30;99.90;;;;;;5068503;28;20041;-71
2022/10/04 07:44:58;;;;;;;17.13;11.98;;;12.40;99.90;;;;;;5063096;28;20048;-71
2022/10/04 07:47:26;;;;;;;18.88;12.90;;;12.40;99.90;;;;;;5051424;28;20043;-73
2022/10/04 07:49:53;;;;;;;16.50;12.48;;;12.40;99.90;;;;;;5051177;28;20049;-74
2022/10/04 07:52:24;;;;;;;18.17;13.00;;;12.50;99.90;;;;;;5051745;28;20048;-74
2022/10/04 07:55:06;;;;;;;21.00;11.73;;;12.50;99.90;;;;;;5065278;28;20029;-74
2022/10/04 07:57:53;;;;;;;16.48;11.75;;;12.70;99.90;;;;;;5033619;28;20514;-74
2022/10/04 08:00:26;;;;;;;17.52;12.52;;;12.80;99.90;;;;;;5068714;28;20143;-74
2022/10/04 08:03:13;;;;;;;17.38;12.32;;;12.90;99.90;;;;;;5068609;28;20487;-74
2022/10/04 08:05:44;;;;;;;16.27;11.82;;;13.00;99.90;;;;;;5050675;28;20044;-74
2022/10/04 08:08:39;;;;;;;18.37;11.67;;;13.00;99.90;;;;;;5035236;28;20491;-74
2022/10/04 08:11:22;;;;;;;15.40;10.50;;;12.90;99.90;;;;;;5050690;28;20120;-74
2022/10/04 08:14:23;;;;;;;17.92;11.77;;;13.00;99.90;;;;;;5052033;28;20049;-74
2022/10/04 08:17:01;;;;;;;18.25;10.20;;;13.00;99.90;;;;;;5049996;28;20086;-74
2022/10/04 08:20:07;;;;;;;15.57;10.40;;;13.00;99.90;;;;;;5068149;28;20037;-74
2022/10/04 08:23:00;;;;;;;15.50;10.07;;;13.10;99.90;;;;;;5035118;28;20290;-74
2022/10/04 08:25:50;;;;;;;17.55;10.32;;;13.10;99.90;;;;;;5068371;28;20044;-74
2022/10/04 08:31:43;;;;;;;16.98;10.55;;;13.20;99.90;;;;;;5085274;28;20060;-74
2022/10/04 08:34:32;;;;;;;13.30;9.68;;;13.10;99.90;;;;;;5050793;28;20054;-74
2022/10/04 08:37:41;;;;;;;15.43;10.10;;;13.10;99.90;;;;;;5066260;28;20033;-74
2022/10/04 08:40:35;;;;;;;14.63;10.13;;;13.20;99.90;;;;;;4993801;28;20523;-74
2022/10/04 08:43:42;;;;;;;17.17;10.43;;;13.30;99.90;;;;;;5036200;28;20056;-74
2022/10/04 08:46:33;;;;;;;14.43;9.90;;;13.40;99.90;;;;;;5084966;28;20115;-74
2022/10/04 08:49:15;;;;;;;14.90;9.73;;;13.50;99.90;;;;;;5050555;28;20543;-74
2022/10/04 08:52:22;;;;;;;14.32;9.45;;;13.70;99.90;;;;;;5051737;28;20143;-74
2022/10/04 08:55:04;;;;;;;14.55;10.15;;;13.80;99.90;;;;;;5051333;28;20080;-74
2022/10/04 08:57:54;;;;;;;13.57;9.48;;;13.90;99.90;;;;;;5082228;28;20670;-74
2022/10/04 09:00:55;;;;;;;16.15;9.13;;;14.00;99.90;;;;;;5020170;28;20494;-75
2022/10/04 09:04:00;;;;;;;12.27;8.15;;;14.20;99.90;;;;;;5054331;28;20099;-74
2022/10/04 09:06:51;;;;;;;17.02;9.43;;;14.40;99.90;;;;;;5047920;28;20118;-74
2022/10/04 09:09:55;;;;;;;15.80;9.02;;;14.40;99.90;;;;;;5065683;28;20049;-74
2022/10/04 09:12:26;;;;;;;14.95;7.75;;;14.50;99.90;;;;;;5087490;28;20474;-74
2022/10/04 09:15:12;;;;;;;15.88;8.40;;;14.60;99.90;;;;;;5051513;28;20122;-74
2022/10/04 09:18:11;;;;;;;12.07;7.80;;;14.70;99.90;;;;;;5069676;28;20041;-74
2022/10/04 09:21:00;;;;;;;13.07;7.55;;;14.70;99.90;;;;;;5061689;28;20047;-75
2022/10/04 09:23:54;;;;;;;13.13;7.78;;;14.90;99.90;;;;;;5037570;28;20498;-74
2022/10/04 09:26:43;;;;;;;13.80;7.28;;;14.90;99.90;;;;;;5038588;28;20060;-75
2022/10/04 09:29:40;;;;;;;14.18;7.90;;;14.90;99.90;;;;;;5069633;28;20076;-75
2022/10/04 09:32:31;;;;;;;13.32;7.43;;;15.00;99.90;;;;;;5068013;28;20555;-75
2022/10/04 09:35:15;;;;;;;17.00;7.53;;;15.00;99.90;;;;;;5054299;28;20068;-75
2022/10/04 09:37:53;;;;;;;14.95;8.55;;;15.10;99.90;;;;;;5053976;28;20041;-75
2022/10/04 09:41:00;;;;;;;11.63;7.82;;;15.10;99.90;;;;;;5037065;28;20069;-75
2022/10/04 09:43:46;;;;;;;11.52;7.50;;;15.20;99.90;;;;;;5050077;28;20055;-75
2022/10/04 09:46:33;;;;;;;12.38;7.72;;;15.20;99.90;;;;;;5053107;28;20036;-75
2022/10/04 09:49:26;;;;;;;10.98;7.22;;;15.30;99.90;;;;;;5053281;28;20037;-75
2022/10/04 09:51:59;;;;;;;;;;;15.30;99.90;;;;;;5058767;28;20072;-74
2022/10/04 09:54:37;;;;;;;13.68;7.18;;;15.30;99.90;;;;;;5052657;28;19960;-74
2022/10/04 09:57:12;;;;;;;11.43;7.22;;;15.40;99.90;;;;;;5050701;28;20041;-74
2022/10/04 09:59:57;;;;;;;12.73;7.00;;;15.40;99.90;;;;;;5064468;28;20037;-74
2022/10/04 10:02:53;;;;;;;12.48;7.18;;;15.50;99.90;;;;;;5079901;28;20045;-75
2022/10/04 10:05:46;;;;;;;14.68;7.65;;;15.60;99.90;;;;;;5032068;28;20064;-75
2022/10/04 10:08:47;;;;;;;12.30;7.38;;;15.70;99.90;;;;;;5034840;28;20037;-74
2022/10/04 10:14:32;;;;;;;12.45;7.07;;;15.70;99.90;;;;;;5052037;28;20048;-75
2022/10/04 10:17:19;;;;;;;12.10;7.25;;;15.70;99.90;;;;;;5051357;28;20414;-74
2022/10/04 10:20:17;;;;;;;11.38;6.28;;;15.80;99.90;;;;;;5052065;28;20049;-74
2022/10/04 10:23:09;;;;;;;10.88;6.07;;;15.80;99.90;;;;;;5051152;28;20033;-74
2022/10/04 10:26:15;;;;;;;12.00;5.68;;;15.90;99.90;;;;;;5035331;28;20049;-74
2022/10/04 10:28:49;;;;;;;11.82;5.68;;;15.90;99.90;;;;;;5034159;28;20179;-74
2022/10/04 10:31:55;;;;;;;12.25;5.22;;;16.00;99.90;;;;;;5084227;28;20120;-74
2022/10/04 10:35:13;;;;;;;13.77;6.35;;;16.10;99.90;;;;;;5053324;28;20075;-74
2022/10/04 10:37:54;;;;;;;10.02;6.15;;;16.00;99.90;;;;;;4999797;28;20048;-74
2022/10/04 10:40:36;;;;;;;10.93;5.53;;;16.00;99.90;;;;;;4999305;28;20139;-74
2022/10/04 10:43:05;;;;;;;;;;;16.00;99.90;;;;;;5044805;28;20525;-74
2022/10/04 10:46:03;;;;;;;12.43;4.93;;;16.00;99.90;;;;;;5036227;28;19923;-74
2022/10/04 10:48:52;;;;;;;11.23;5.10;;;16.00;99.90;;;;;;5036848;28;20371;-74
2022/10/04 10:51:56;;;;;;;13.50;6.03;;;16.00;99.90;;;;;;5036658;28;20395;-74
2022/10/04 10:54:44;;;;;;;11.32;5.82;;;15.90;99.90;;;;;;5036142;28;20068;-74
2022/10/04 10:57:53;;;;;;;12.35;5.93;;;15.90;99.90;;;;;;5035487;28;20088;-74
2022/10/04 11:00:56;;;;;;;12.50;6.28;;;15.90;99.90;;;;;;5049335;28;20045;-74
2022/10/04 11:03:42;;;;;;;12.65;6.03;;;16.00;99.90;;;;;;5069446;28;20525;-74
2022/10/04 11:06:12;;;;;;;12.73;6.28;;;16.00;99.90;;;;;;5052794;28;20056;-74
2022/10/04 11:09:14;;;;;;;11.70;5.47;;;16.00;99.90;;;;;;5068644;28;20045;-74
2022/10/04 11:11:49;;;;;;;9.40;4.50;;;16.10;99.90;;;;;;5028388;28;20049;-74
2022/10/04 11:14:34;;;;;;;9.65;4.63;;;16.10;99.90;;;;;;5035479;28;20043;-74
2022/10/04 11:17:19;;;;;;;8.90;4.50;;;16.10;99.90;;;;;;5052542;28;20063;-74
2022/10/04 11:20:14;;;;;;;11.20;4.57;;;16.20;99.90;;;;;;5052852;28;20044;-74
2022/10/04 11:23:17;;;;;;;9.70;4.38;;;16.20;99.90;;;;;;5052091;28;20449;-74
2022/10/04 11:25:57;;;;;;;12.25;4.55;;;16.20;99.90;;;;;;5052021;28;20044;-74
2022/10/04 11:28:45;;;;;;;10.48;4.50;;;16.20;99.90;;;;;;5051932;28;20044;-74
2022/10/04 11:31:53;;;;;;;8.77;5.00;;;16.30;99.90;;;;;;5051895;28;20441;-74
2022/10/04 11:34:58;;;;;;;11.25;5.30;;;16.20;99.90;;;;;;5074065;28;20573;-74
2022/10/04 11:37:40;;;;;;;13.10;5.10;;;16.10;99.90;;;;;;5051883;28;20099;-75
2022/10/04 11:40:14;;;;;;;10.25;5.18;;;16.10;99.90;;;;;;5033618;28;20123;-75
2022/10/04 11:42:55;;;;;;;11.73;5.53;;;16.10;99.90;;;;;;5034122;28;20041;-74
2022/10/04 11:46:00;;;;;;;11.55;4.97;;;16.20;99.90;;;;;;5035546;28;20041;-74
2022/10/04 11:48:56;;;;;;;12.07;5.15;;;16.30;99.90;;;;;;5051913;28;20406;-75
2022/10/04 11:51:49;;;;;;;10.95;5.78;;;16.30;99.90;;;;;;5035311;28;20403;-74
2022/10/04 11:54:24;;;;;;;11.82;5.75;;;16.20;99.90;;;;;;5068110;28;20470;-74
2022/10/04 11:57:25;;;;;;;11.88;5.88;;;16.30;99.90;;;;;;5068354;28;20084;-74
2022/10/04 11:59:58;;;;;;;12.85;6.07;;;16.20;99.90;;;;;;5057958;28;20033;-74
2022/10/04 12:02:39;;;;;;;12.05;5.45;;;16.10;99.90;;;;;;5015182;28;20460;-74
2022/10/04 12:05:28;;;;;;;9.82;5.10;;;16.20;99.90;;;;;;5050896;28;20592;-74
2022/10/04 12:08:00;;;;;;;10.27;5.35;;;16.20;99.90;;;;;;5068516;28;20040;-74
2022/10/04 12:11:07;;;;;;;10.77;5.50;;;16.30;99.90;;;;;;5051508;28;20064;-74
2022/10/04 12:13:57;;;;;;;10.35;5.40;;;16.20;99.90;;;;;;5021544;28;20041;-74
2022/10/04 12:16:32;;;;;;;10.65;5.72;;;16.30;99.90;;;;;;5047822;28;20037;-71
2022/10/04 12:19:26;;;;;;;11.85;5.13;;;16.30;99.90;;;;;;5046511;28;20033;-75
2022/10/04 12:22:07;;;;;;;12.65;6.00;;;16.40;99.90;;;;;;5059237;28;20036;-75
2022/10/04 12:25:06;;;;;;;11.68;5.82;;;16.50;99.90;;;;;;5052485;28;20459;-74
2022/10/04 12:27:35;;;;;;;13.32;5.82;;;16.60;99.90;;;;;;5049362;28;20043;-75
2022/10/04 12:30:15;;;;;;;11.15;5.75;;;16.60;99.90;;;;;;5047567;28;20080;-75
2022/10/04 12:32:54;;;;;;;11.50;5.70;;;16.60;99.90;;;;;;5039921;28;20041;-75
2022/10/04 12:35:39;;;;;;;10.20;5.80;;;16.70;99.90;;;;;;5051468;28;20040;-75
2022/10/04 12:38:26;;;;;;;11.68;5.95;;;16.70;99.90;;;;;;5070819;28;20037;-75
2022/10/04 12:41:10;;;;;;;14.80;6.18;;;16.70;99.90;;;;;;5053151;28;20045;-75
2022/10/04 12:43:47;;;;;;;12.30;6.82;;;16.80;99.90;;;;;;5050403;28;20040;-75
2022/10/04 12:46:32;;;;;;;11.52;6.55;;;16.80;99.90;;;;;;5053390;28;20037;-75
2022/10/04 12:49:24;;;;;;;11.93;5.70;;;16.80;99.90;;;;;;5056417;28;20090;-75
2022/10/04 12:52:17;;;;;;;12.10;5.97;;;16.80;99.90;;;;;;5053379;28;20502;-75
2022/10/04 12:55:01;;;;;;;10.13;5.30;;;16.90;99.90;;;;;;5057328;28;20112;-75
2022/10/04 12:57:50;;;;;;;13.57;6.22;;;16.80;99.90;;;;;;5063031;28;20053;-74
2022/10/04 13:00:22;;;;;;;10.85;6.28;;;16.80;99.90;;;;;;5053422;28;20044;-75
2022/10/04 13:03:13;;;;;;;10.75;5.60;;;16.80;99.90;;;;;;5053771;28;20398;-74
2022/10/04 13:05:45;;;;;;;11.75;5.88;;;16.90;99.90;;;;;;5054293;28;20041;-75
2022/10/04 13:08:48;;;;;;;11.20;5.63;;;16.90;99.90;;;;;;5065385;28;20037;-74
2022/10/04 13:11:40;;;;;;;12.70;6.00;;;16.90;99.90;;;;;;5067080;28;20041;-74
2022/10/04 13:14:18;;;;;;;;;;;17.00;99.90;;;;;;5054056;28;20077;-75
2022/10/04 13:17:08;;;;;;;13.95;6.20;;;16.90;99.90;;;;;;5080977;28;19924;-74
2022/10/04 13:19:36;;;;;;;11.63;6.07;;;16.80;99.90;;;;;;5053491;28;20033;-75
2022/10/04 13:22:20;;;;;;;9.60;5.85;;;16.80;99.90;;;;;;5070194;28;20037;-75
2022/10/04 13:24:55;;;;;;;12.77;6.30;;;16.80;99.90;;;;;;5049596;28;20045;-75
2022/10/04 13:27:37;;;;;;;10.60;5.82;;;16.80;99.90;;;;;;5066136;28;20076;-75
2022/10/04 13:30:27;;;;;;;13.18;6.30;;;16.80;99.90;;;;;;5035232;28;20394;-75
2022/10/04 13:33:25;;;;;;;11.35;5.95;;;16.90;99.90;;;;;;5077057;28;20060;-75
2022/10/04 13:36:09;;;;;;;12.75;6.50;;;16.90;99.90;;;;;;5075600;28;20032;-75
2022/10/04 13:38:53;;;;;;;10.55;6.20;;;16.90;99.90;;;;;;5052723;28;20029;-75
2022/10/04 13:42:07;;;;;;;12.55;5.78;;;17.00;99.90;;;;;;5049435;28;20048;-74
2022/10/04 13:45:33;;;;;;;11.48;5.72;;;16.90;99.90;;;;;;5018889;28;20049;-75
2022/10/04 13:48:09;;;;;;;13.43;6.03;;;16.90;99.90;;;;;;4996272;28;20049;-75
2022/10/04 13:50:51;;;;;;;9.60;5.28;;;16.90;99.90;;;;;;5058288;28;20052;-75
2022/10/04 13:57:02;;;;;;;10.30;4.88;;;16.90;99.90;;;;;;5049797;28;20437;-74
2022/10/04 13:59:46;;;;;;;10.93;5.20;;;16.90;99.90;;;;;;5051923;28;20517;-75
2022/10/04 14:02:26;;;;;;;9.07;4.85;;;16.90;99.90;;;;;;5065049;28;20082;-74
2022/10/04 14:05:21;;;;;;;9.50;4.90;;;16.80;99.90;;;;;;5066379;28;20041;-75